sensor_id;sensor_type;location;lat;lon;timestamp;pressure;altitude;pressure_sealevel;temperature;humidity
67840;BME280;54636;51.684;5.142;2024-01-30T00:00:54;102655.84;;;6.00;100.00
67840;BME280;54636;51.684;5.142;2024-01-30T00:03:19;102644.69;;;5.98;100.00
67840;BME280;54636;51.684;5.142;2024-01-30T00:05:44;102637.09;;;5.89;100.00
67840;BME280;54636;51.684;5.142;2024-01-30T00:08:10;102640.94;;;5.88;100.00
67840;BME280;54636;51.684;5.142;2024-01-30T00:10:35;102639.41;;;5.87;100.00
67840;BME280;54636;51.684;5.142;2024-01-30T00:13:01;102640.22;;;5.84;100.00
67840;BME280;54636;51.684;5.142;2024-01-30T00:15:27;102639.88;;;5.82;100.00
67840;BME280;54636;51.684;5.142;2024-01-30T00:17:53;102638.34;;;5.81;100.00
67840;BME280;54636;51.684;5.142;2024-01-30T00:20:18;102633.75;;;5.78;100.00
67840;BME280;54636;51.684;5.142;2024-01-30T00:22:44;102632.22;;;5.77;100.00
67840;BME280;54636;51.684;5.142;2024-01-30T00:25:09;102623.81;;;5.71;100.00
67840;BME280;54636;51.684;5.142;2024-01-30T00:27:35;102621.09;;;5.71;100.00
67840;BME280;54636;51.684;5.142;2024-01-30T00:30:00;102624.56;;;5.72;100.00
67840;BME280;54636;51.684;5.142;2024-01-30T00:32:26;102626.50;;;5.71;100.00
67840;BME280;54636;51.684;5.142;2024-01-30T00:34:51;102617.28;;;5.69;100.00
67840;BME280;54636;51.684;5.142;2024-01-30T00:37:17;102623.47;;;5.66;100.00
67840;BME280;54636;51.684;5.142;2024-01-30T00:39:42;102620.03;;;5.65;100.00
67840;BME280;54636;51.684;5.142;2024-01-30T00:42:07;102611.56;;;5.63;100.00
67840;BME280;54636;51.684;5.142;2024-01-30T00:44:35;102608.94;;;5.56;100.00
67840;BME280;54636;51.684;5.142;2024-01-30T00:47:03;102612.38;;;5.60;100.00
67840;BME280;54636;51.684;5.142;2024-01-30T00:49:28;102610.16;;;5.51;100.00
67840;BME280;54636;51.684;5.142;2024-01-30T00:51:53;102612.88;;;5.48;100.00
67840;BME280;54636;51.684;5.142;2024-01-30T00:54:19;102614.03;;;5.47;100.00
67840;BME280;54636;51.684;5.142;2024-01-30T00:56:44;102614.44;;;5.45;100.00
67840;BME280;54636;51.684;5.142;2024-01-30T00:59:11;102616.38;;;5.45;100.00
67840;BME280;54636;51.684;5.142;2024-01-30T01:01:36;102615.25;;;5.42;100.00
67840;BME280;54636;51.684;5.142;2024-01-30T01:04:02;102614.44;;;5.45;100.00
67840;BME280;54636;51.684;5.142;2024-01-30T01:06:27;102613.28;;;5.46;100.00
67840;BME280;54636;51.684;5.142;2024-01-30T01:08:52;102610.59;;;5.46;100.00
67840;BME280;54636;51.684;5.142;2024-01-30T01:11:18;102612.88;;;5.48;100.00
67840;BME280;54636;51.684;5.142;2024-01-30T01:13:43;102607.84;;;5.50;100.00
67840;BME280;54636;51.684;5.142;2024-01-30T01:16:09;102604.38;;;5.49;100.00
67840;BME280;54636;51.684;5.142;2024-01-30T01:18:34;102603.22;;;5.50;100.00
67840;BME280;54636;51.684;5.142;2024-01-30T01:20:59;102598.22;;;5.49;100.00
67840;BME280;54636;51.684;5.142;2024-01-30T01:23:25;102596.38;;;5.42;100.00
67840;BME280;54636;51.684;5.142;2024-01-30T01:25:51;102589.03;;;5.46;100.00
67840;BME280;54636;51.684;5.142;2024-01-30T01:28:16;102597.09;;;5.46;100.00
67840;BME280;54636;51.684;5.142;2024-01-30T01:30:42;102606.69;;;5.51;100.00
67840;BME280;54636;51.684;5.142;2024-01-30T01:33:07;102594.38;;;5.50;100.00
67840;BME280;54636;51.684;5.142;2024-01-30T01:35:34;102598.16;;;5.56;100.00
67840;BME280;54636;51.684;5.142;2024-01-30T01:38:00;102594.31;;;5.57;100.00
67840;BME280;54636;51.684;5.142;2024-01-30T01:40:26;102592.72;;;5.59;100.00
67840;BME280;54636;51.684;5.142;2024-01-30T01:42:53;102587.31;;;5.63;100.00
67840;BME280;54636;51.684;5.142;2024-01-30T01:45:19;102595.72;;;5.69;100.00
67840;BME280;54636;51.684;5.142;2024-01-30T01:47:47;102594.16;;;5.71;100.00
67840;BME280;54636;51.684;5.142;2024-01-30T01:50:13;102573.03;;;5.66;100.00
67840;BME280;54636;51.684;5.142;2024-01-30T01:52:43;102574.91;;;5.69;100.00
67840;BME280;54636;51.684;5.142;2024-01-30T01:55:10;102585.28;;;5.71;100.00
67840;BME280;54636;51.684;5.142;2024-01-30T01:57:36;102576.84;;;5.69;100.00
67840;BME280;54636;51.684;5.142;2024-01-30T02:00:02;102582.28;;;5.65;100.00
67840;BME280;54636;51.684;5.142;2024-01-30T02:02:30;102575.75;;;5.62;100.00
67840;BME280;54636;51.684;5.142;2024-01-30T02:05:00;102571.16;;;5.59;100.00
67840;BME280;54636;51.684;5.142;2024-01-30T02:07:27;102576.25;;;5.54;100.00
67840;BME280;54636;51.684;5.142;2024-01-30T02:09:52;102578.97;;;5.50;100.00
67840;BME280;54636;51.684;5.142;2024-01-30T02:12:18;102574.38;;;5.47;100.00
67840;BME280;54636;51.684;5.142;2024-01-30T02:14:47;102577.13;;;5.44;100.00
67840;BME280;54636;51.684;5.142;2024-01-30T02:17:13;102583.31;;;5.41;100.00
67840;BME280;54636;51.684;5.142;2024-01-30T02:19:39;102582.94;;;5.39;100.00
67840;BME280;54636;51.684;5.142;2024-01-30T02:22:05;102585.22;;;5.40;100.00
67840;BME280;54636;51.684;5.142;2024-01-30T02:24:30;102580.59;;;5.41;100.00
67840;BME280;54636;51.684;5.142;2024-01-30T02:26:56;102575.28;;;5.34;100.00
67840;BME280;54636;51.684;5.142;2024-01-30T02:29:21;102578.75;;;5.34;100.00
67840;BME280;54636;51.684;5.142;2024-01-30T02:31:47;102575.66;;;5.36;100.00
67840;BME280;54636;51.684;5.142;2024-01-30T02:34:13;102574.94;;;5.32;100.00
67840;BME280;54636;51.684;5.142;2024-01-30T02:36:42;102566.09;;;5.31;100.00
67840;BME280;54636;51.684;5.142;2024-01-30T02:39:07;102567.25;;;5.30;100.00
67840;BME280;54636;51.684;5.142;2024-01-30T02:41:33;102562.63;;;5.30;100.00
67840;BME280;54636;51.684;5.142;2024-01-30T02:43:58;102561.06;;;5.33;100.00
67840;BME280;54636;51.684;5.142;2024-01-30T02:46:24;102546.78;;;5.36;100.00
67840;BME280;54636;51.684;5.142;2024-01-30T02:48:49;102552.13;;;5.40;100.00
67840;BME280;54636;51.684;5.142;2024-01-30T02:51:14;102548.63;;;5.43;100.00
67840;BME280;54636;51.684;5.142;2024-01-30T02:53:40;102551.28;;;5.46;100.00
67840;BME280;54636;51.684;5.142;2024-01-30T02:56:05;102554.72;;;5.50;100.00
67840;BME280;54636;51.684;5.142;2024-01-30T02:58:31;102548.88;;;5.55;100.00
67840;BME280;54636;51.684;5.142;2024-01-30T03:00:56;102546.16;;;5.59;100.00
67840;BME280;54636;51.684;5.142;2024-01-30T03:03:22;102546.81;;;5.67;100.00
67840;BME280;54636;51.684;5.142;2024-01-30T03:05:47;102543.25;;;5.77;100.00
67840;BME280;54636;51.684;5.142;2024-01-30T03:08:13;102540.09;;;5.82;100.00
67840;BME280;54636;51.684;5.142;2024-01-30T03:10:38;102534.63;;;5.85;100.00
67840;BME280;54636;51.684;5.142;2024-01-30T03:13:03;102550.41;;;5.87;100.00
67840;BME280;54636;51.684;5.142;2024-01-30T03:15:29;102538.84;;;5.90;100.00
67840;BME280;54636;51.684;5.142;2024-01-30T03:17:54;102545.66;;;5.98;100.00
67840;BME280;54636;51.684;5.142;2024-01-30T03:20:19;102545.25;;;6.00;100.00
67840;BME280;54636;51.684;5.142;2024-01-30T03:22:45;102554.44;;;6.06;100.00
67840;BME280;54636;51.684;5.142;2024-01-30T03:25:10;102550.16;;;6.08;100.00
67840;BME280;54636;51.684;5.142;2024-01-30T03:27:35;102552.03;;;6.11;100.00
67840;BME280;54636;51.684;5.142;2024-01-30T03:30:01;102552.81;;;6.12;100.00
67840;BME280;54636;51.684;5.142;2024-01-30T03:32:27;102549.28;;;6.15;100.00
67840;BME280;54636;51.684;5.142;2024-01-30T03:34:53;102549.25;;;6.18;100.00
67840;BME280;54636;51.684;5.142;2024-01-30T03:37:18;102544.56;;;6.22;100.00
67840;BME280;54636;51.684;5.142;2024-01-30T03:39:44;102551.03;;;6.28;100.00
67840;BME280;54636;51.684;5.142;2024-01-30T03:42:09;102549.09;;;6.29;100.00
67840;BME280;54636;51.684;5.142;2024-01-30T03:44:35;102555.22;;;6.33;100.00
67840;BME280;54636;51.684;5.142;2024-01-30T03:47:00;102554.75;;;6.38;100.00
67840;BME280;54636;51.684;5.142;2024-01-30T03:49:25;102553.16;;;6.41;100.00
67840;BME280;54636;51.684;5.142;2024-01-30T03:51:51;102549.72;;;6.40;100.00
67840;BME280;54636;51.684;5.142;2024-01-30T03:54:16;102546.94;;;6.44;100.00
67840;BME280;54636;51.684;5.142;2024-01-30T03:56:41;102548.84;;;6.47;100.00
67840;BME280;54636;51.684;5.142;2024-01-30T03:59:07;102546.50;;;6.49;100.00
67840;BME280;54636;51.684;5.142;2024-01-30T04:01:32;102546.81;;;6.51;100.00
67840;BME280;54636;51.684;5.142;2024-01-30T04:03:58;102534.09;;;6.51;100.00
67840;BME280;54636;51.684;5.142;2024-01-30T04:06:23;102532.50;;;6.54;100.00
67840;BME280;54636;51.684;5.142;2024-01-30T04:08:49;102530.91;;;6.56;100.00
67840;BME280;54636;51.684;5.142;2024-01-30T04:11:14;102533.22;;;6.58;100.00
67840;BME280;54636;51.684;5.142;2024-01-30T04:13:40;102530.44;;;6.61;100.00
67840;BME280;54636;51.684;5.142;2024-01-30T04:16:06;102529.63;;;6.65;100.00
67840;BME280;54636;51.684;5.142;2024-01-30T04:18:31;102518.00;;;6.68;100.00
67840;BME280;54636;51.684;5.142;2024-01-30T04:20:57;102518.72;;;6.72;100.00
67840;BME280;54636;51.684;5.142;2024-01-30T04:23:22;102534.84;;;6.75;100.00
67840;BME280;54636;51.684;5.142;2024-01-30T04:25:48;102535.97;;;6.78;100.00
67840;BME280;54636;51.684;5.142;2024-01-30T04:28:13;102546.31;;;6.83;100.00
67840;BME280;54636;51.684;5.142;2024-01-30T04:30:39;102533.91;;;6.85;100.00
67840;BME280;54636;51.684;5.142;2024-01-30T04:33:05;102532.38;;;6.84;100.00
67840;BME280;54636;51.684;5.142;2024-01-30T04:35:30;102526.47;;;6.93;100.00
67840;BME280;54636;51.684;5.142;2024-01-30T04:37:56;102534.16;;;6.94;100.00
67840;BME280;54636;51.684;5.142;2024-01-30T04:40:21;102530.63;;;6.98;100.00
67840;BME280;54636;51.684;5.142;2024-01-30T04:42:46;102527.91;;;6.98;100.00
67840;BME280;54636;51.684;5.142;2024-01-30T04:45:12;102525.56;;;7.00;100.00
67840;BME280;54636;51.684;5.142;2024-01-30T04:47:37;102519.06;;;6.97;100.00
67840;BME280;54636;51.684;5.142;2024-01-30T04:50:05;102521.28;;;7.02;100.00
67840;BME280;54636;51.684;5.142;2024-01-30T04:52:31;102519.00;;;7.01;100.00
67840;BME280;54636;51.684;5.142;2024-01-30T04:54:56;102513.94;;;7.03;100.00
67840;BME280;54636;51.684;5.142;2024-01-30T04:57:22;102513.59;;;7.01;100.00
67840;BME280;54636;51.684;5.142;2024-01-30T04:59:47;102512.75;;;7.04;100.00
67840;BME280;54636;51.684;5.142;2024-01-30T05:02:12;102510.06;;;7.04;100.00
67840;BME280;54636;51.684;5.142;2024-01-30T05:04:38;102502.38;;;7.02;100.00
67840;BME280;54636;51.684;5.142;2024-01-30T05:07:03;102504.25;;;7.05;100.00
67840;BME280;54636;51.684;5.142;2024-01-30T05:09:29;102512.28;;;7.09;100.00
67840;BME280;54636;51.684;5.142;2024-01-30T05:11:54;102530.72;;;7.14;100.00
67840;BME280;54636;51.684;5.142;2024-01-30T05:14:20;102512.47;;;7.18;100.00
67840;BME280;54636;51.684;5.142;2024-01-30T05:16:45;102503.19;;;7.19;100.00
67840;BME280;54636;51.684;5.142;2024-01-30T05:19:13;102506.88;;;7.28;100.00
67840;BME280;54636;51.684;5.142;2024-01-30T05:21:39;102516.84;;;7.32;100.00
67840;BME280;54636;51.684;5.142;2024-01-30T05:24:05;102509.44;;;7.36;100.00
67840;BME280;54636;51.684;5.142;2024-01-30T05:26:30;102512.06;;;7.39;100.00
67840;BME280;54636;51.684;5.142;2024-01-30T05:28:56;102501.66;;;7.38;100.00
67840;BME280;54636;51.684;5.142;2024-01-30T05:31:21;102501.25;;;7.39;100.00
67840;BME280;54636;51.684;5.142;2024-01-30T05:33:47;102506.66;;;7.39;100.00
67840;BME280;54636;51.684;5.142;2024-01-30T05:36:12;102517.06;;;7.41;100.00
67840;BME280;54636;51.684;5.142;2024-01-30T05:38:38;102462.00;;;7.15;100.00
67840;BME280;54636;51.684;5.142;2024-01-30T05:41:04;102510.41;;;7.45;100.00
67840;BME280;54636;51.684;5.142;2024-01-30T05:43:29;102505.34;;;7.47;100.00
67840;BME280;54636;51.684;5.142;2024-01-30T05:45:55;102502.91;;;7.53;100.00
67840;BME280;54636;51.684;5.142;2024-01-30T05:48:20;102507.06;;;7.57;100.00
67840;BME280;54636;51.684;5.142;2024-01-30T05:50:46;102509.69;;;7.61;100.00
67840;BME280;54636;51.684;5.142;2024-01-30T05:53:11;102514.69;;;7.63;100.00
67840;BME280;54636;51.684;5.142;2024-01-30T05:55:37;102517.75;;;7.65;100.00
67840;BME280;54636;51.684;5.142;2024-01-30T05:58:02;102511.50;;;7.68;100.00
67840;BME280;54636;51.684;5.142;2024-01-30T06:00:28;102517.53;;;7.75;100.00
67840;BME280;54636;51.684;5.142;2024-01-30T06:02:53;102527.41;;;7.82;100.00
67840;BME280;54636;51.684;5.142;2024-01-30T06:05:18;102523.63;;;7.79;100.00
67840;BME280;54636;51.684;5.142;2024-01-30T06:07:44;102530.72;;;7.89;100.00
67840;BME280;54636;51.684;5.142;2024-01-30T06:10:09;102523.78;;;7.88;100.00
67840;BME280;54636;51.684;5.142;2024-01-30T06:12:35;102525.31;;;7.89;100.00
67840;BME280;54636;51.684;5.142;2024-01-30T06:15:01;102518.28;;;7.92;100.00
67840;BME280;54636;51.684;5.142;2024-01-30T06:17:28;102537.16;;;7.96;100.00
67840;BME280;54636;51.684;5.142;2024-01-30T06:19:53;102532.09;;;7.98;100.00
67840;BME280;54636;51.684;5.142;2024-01-30T06:22:19;102528.53;;;8.01;100.00
67840;BME280;54636;51.684;5.142;2024-01-30T06:24:45;102530.81;;;8.02;100.00
67840;BME280;54636;51.684;5.142;2024-01-30T06:27:13;102521.53;;;8.03;100.00
67840;BME280;54636;51.684;5.142;2024-01-30T06:29:38;102528.88;;;8.03;100.00
67840;BME280;54636;51.684;5.142;2024-01-30T06:32:04;102532.63;;;8.09;100.00
67840;BME280;54636;51.684;5.142;2024-01-30T06:34:29;102522.97;;;8.08;100.00
67840;BME280;54636;51.684;5.142;2024-01-30T06:36:55;102532.53;;;8.12;100.00
67840;BME280;54636;51.684;5.142;2024-01-30T06:39:20;102533.91;;;8.20;100.00
67840;BME280;54636;51.684;5.142;2024-01-30T06:41:46;102546.16;;;8.25;100.00
67840;BME280;54636;51.684;5.142;2024-01-30T06:44:12;102532.13;;;8.30;100.00
67840;BME280;54636;51.684;5.142;2024-01-30T06:46:38;102546.31;;;8.38;100.00
67840;BME280;54636;51.684;5.142;2024-01-30T06:49:03;102546.44;;;8.31;100.00
67840;BME280;54636;51.684;5.142;2024-01-30T06:51:29;102553.66;;;8.37;100.00
67840;BME280;54636;51.684;5.142;2024-01-30T06:53:54;102558.66;;;8.39;100.00
67840;BME280;54636;51.684;5.142;2024-01-30T06:56:20;102554.00;;;8.39;100.00
67840;BME280;54636;51.684;5.142;2024-01-30T06:58:50;102558.91;;;8.44;100.00
67840;BME280;54636;51.684;5.142;2024-01-30T07:01:15;102566.50;;;8.49;100.00
67840;BME280;54636;51.684;5.142;2024-01-30T07:03:41;102561.00;;;8.53;100.00
67840;BME280;54636;51.684;5.142;2024-01-30T07:06:07;102564.31;;;8.61;100.00
67840;BME280;54636;51.684;5.142;2024-01-30T07:08:32;102566.94;;;8.64;100.00
67840;BME280;54636;51.684;5.142;2024-01-30T07:10:57;102560.41;;;8.62;100.00
67840;BME280;54636;51.684;5.142;2024-01-30T07:13:23;102566.09;;;8.67;100.00
67840;BME280;54636;51.684;5.142;2024-01-30T07:15:48;102579.47;;;8.74;100.00
67840;BME280;54636;51.684;5.142;2024-01-30T07:18:13;102580.13;;;8.78;100.00
67840;BME280;54636;51.684;5.142;2024-01-30T07:20:39;102575.41;;;8.82;100.00
67840;BME280;54636;51.684;5.142;2024-01-30T07:23:12;102581.41;;;8.90;100.00
67840;BME280;54636;51.684;5.142;2024-01-30T07:25:40;102578.69;;;8.90;100.00
67840;BME280;54636;51.684;5.142;2024-01-30T07:28:07;102586.41;;;8.91;100.00
67840;BME280;54636;51.684;5.142;2024-01-30T07:30:32;102587.16;;;8.92;100.00
67840;BME280;54636;51.684;5.142;2024-01-30T07:32:57;102600.97;;;8.98;100.00
67840;BME280;54636;51.684;5.142;2024-01-30T07:35:23;102598.59;;;9.00;100.00
67840;BME280;54636;51.684;5.142;2024-01-30T07:37:48;102593.16;;;9.00;100.00
67840;BME280;54636;51.684;5.142;2024-01-30T07:40:14;102595.91;;;9.12;100.00
67840;BME280;54636;51.684;5.142;2024-01-30T07:42:39;102595.72;;;9.19;100.00
67840;BME280;54636;51.684;5.142;2024-01-30T07:45:05;102595.06;;;9.15;100.00
67840;BME280;54636;51.684;5.142;2024-01-30T07:47:30;102603.69;;;9.27;100.00
67840;BME280;54636;51.684;5.142;2024-01-30T07:49:56;102598.59;;;9.29;100.00
67840;BME280;54636;51.684;5.142;2024-01-30T07:52:21;102612.16;;;9.29;100.00
67840;BME280;54636;51.684;5.142;2024-01-30T07:54:50;102603.16;;;9.32;100.00
67840;BME280;54636;51.684;5.142;2024-01-30T07:57:16;102606.97;;;9.34;100.00
67840;BME280;54636;51.684;5.142;2024-01-30T07:59:44;102604.94;;;9.38;100.00
67840;BME280;54636;51.684;5.142;2024-01-30T08:02:12;102607.13;;;9.43;100.00
67840;BME280;54636;51.684;5.142;2024-01-30T08:04:37;102603.66;;;9.43;100.00
67840;BME280;54636;51.684;5.142;2024-01-30T08:07:03;102610.50;;;9.47;100.00
67840;BME280;54636;51.684;5.142;2024-01-30T08:09:28;102608.13;;;9.49;100.00
67840;BME280;54636;51.684;5.142;2024-01-30T08:11:53;102616.91;;;9.53;100.00
67840;BME280;54636;51.684;5.142;2024-01-30T08:14:19;102606.22;;;9.63;100.00
67840;BME280;54636;51.684;5.142;2024-01-30T08:16:44;102578.38;;;9.46;100.00
67840;BME280;54636;51.684;5.142;2024-01-30T08:19:10;102607.53;;;9.83;100.00
67840;BME280;54636;51.684;5.142;2024-01-30T08:21:35;102627.72;;;9.82;100.00
67840;BME280;54636;51.684;5.142;2024-01-30T08:24:05;102614.94;;;9.83;100.00
67840;BME280;54636;51.684;5.142;2024-01-30T08:26:34;102614.72;;;9.90;100.00
67840;BME280;54636;51.684;5.142;2024-01-30T08:29:01;102618.09;;;9.94;100.00
67840;BME280;54636;51.684;5.142;2024-01-30T08:31:26;102616.16;;;9.95;100.00
67840;BME280;54636;51.684;5.142;2024-01-30T08:33:51;102613.56;;;10.04;100.00
67840;BME280;54636;51.684;5.142;2024-01-30T08:36:17;102607.91;;;10.11;100.00
67840;BME280;54636;51.684;5.142;2024-01-30T08:38:42;102613.50;;;10.20;100.00
67840;BME280;54636;51.684;5.142;2024-01-30T08:41:08;102616.53;;;10.22;100.00
67840;BME280;54636;51.684;5.142;2024-01-30T08:43:34;102616.53;;;10.22;100.00
67840;BME280;54636;51.684;5.142;2024-01-30T08:45:59;102620.25;;;10.28;100.00
67840;BME280;54636;51.684;5.142;2024-01-30T08:48:25;102620.91;;;10.32;100.00
67840;BME280;54636;51.684;5.142;2024-01-30T08:50:51;102619.38;;;10.31;100.00
67840;BME280;54636;51.684;5.142;2024-01-30T08:53:16;102623.50;;;10.36;100.00
67840;BME280;54636;51.684;5.142;2024-01-30T08:55:42;102620.69;;;10.39;100.00
67840;BME280;54636;51.684;5.142;2024-01-30T08:58:07;102624.78;;;10.44;100.00
67840;BME280;54636;51.684;5.142;2024-01-30T09:00:33;102624.34;;;10.45;100.00
67840;BME280;54636;51.684;5.142;2024-01-30T09:02:58;102590.25;;;10.32;100.00
67840;BME280;54636;51.684;5.142;2024-01-30T09:05:23;102626.63;;;10.60;100.00
67840;BME280;54636;51.684;5.142;2024-01-30T09:07:49;102630.75;;;10.64;100.00
67840;BME280;54636;51.684;5.142;2024-01-30T09:10:14;102631.72;;;10.70;100.00
67840;BME280;54636;51.684;5.142;2024-01-30T09:12:41;102635.84;;;10.75;100.00
67840;BME280;54636;51.684;5.142;2024-01-30T09:15:06;102636.28;;;10.73;100.00
67840;BME280;54636;51.684;5.142;2024-01-30T09:17:32;102646.63;;;10.78;100.00
67840;BME280;54636;51.684;5.142;2024-01-30T09:19:58;102657.69;;;10.84;100.00
67840;BME280;54636;51.684;5.142;2024-01-30T09:22:24;102655.53;;;10.79;100.00
67840;BME280;54636;51.684;5.142;2024-01-30T09:24:49;102656.63;;;10.81;100.00
67840;BME280;54636;51.684;5.142;2024-01-30T09:27:14;102650.84;;;10.79;100.00
67840;BME280;54636;51.684;5.142;2024-01-30T09:29:40;102652.69;;;10.82;100.00
67840;BME280;54636;51.684;5.142;2024-01-30T09:32:05;102651.84;;;10.73;100.00
67840;BME280;54636;51.684;5.142;2024-01-30T09:34:31;102650.53;;;10.77;100.00
67840;BME280;54636;51.684;5.142;2024-01-30T09:36:58;102638.47;;;10.78;100.00
67840;BME280;54636;51.684;5.142;2024-01-30T09:39:24;102647.47;;;10.88;100.00
67840;BME280;54636;51.684;5.142;2024-01-30T09:41:55;102654.53;;;10.85;100.00
67840;BME280;54636;51.684;5.142;2024-01-30T09:44:25;102658.78;;;10.86;100.00
67840;BME280;54636;51.684;5.142;2024-01-30T09:46:54;102661.19;;;10.84;100.00
67840;BME280;54636;51.684;5.142;2024-01-30T09:49:20;102666.50;;;10.88;100.00
67840;BME280;54636;51.684;5.142;2024-01-30T09:51:50;102662.25;;;10.87;100.00
67840;BME280;54636;51.684;5.142;2024-01-30T09:54:16;102657.16;;;10.89;100.00
67840;BME280;54636;51.684;5.142;2024-01-30T09:56:42;102672.38;;;10.86;100.00
67840;BME280;54636;51.684;5.142;2024-01-30T09:59:07;102664.22;;;10.86;100.00
67840;BME280;54636;51.684;5.142;2024-01-30T10:01:34;102670.63;;;10.93;100.00
67840;BME280;54636;51.684;5.142;2024-01-30T10:04:00;102676.94;;;10.89;100.00
67840;BME280;54636;51.684;5.142;2024-01-30T10:06:26;102675.09;;;10.99;100.00
67840;BME280;54636;51.684;5.142;2024-01-30T10:08:52;102682.38;;;11.02;100.00
67840;BME280;54636;51.684;5.142;2024-01-30T10:11:18;102668.41;;;11.13;100.00
67840;BME280;54636;51.684;5.142;2024-01-30T10:13:43;102677.88;;;11.08;100.00
67840;BME280;54636;51.684;5.142;2024-01-30T10:16:09;102678.41;;;11.16;100.00
67840;BME280;54636;51.684;5.142;2024-01-30T10:18:34;102663.66;;;11.04;100.00
67840;BME280;54636;51.684;5.142;2024-01-30T10:21:00;102677.41;;;11.22;100.00
67840;BME280;54636;51.684;5.142;2024-01-30T10:23:25;102678.38;;;11.29;100.00
67840;BME280;54636;51.684;5.142;2024-01-30T10:25:51;102685.84;;;11.37;100.00
67840;BME280;54636;51.684;5.142;2024-01-30T10:28:17;102685.81;;;11.50;100.00
67840;BME280;54636;51.684;5.142;2024-01-30T10:30:43;102680.25;;;11.53;100.00
67840;BME280;54636;51.684;5.142;2024-01-30T10:33:08;102686.22;;;11.61;100.00
67840;BME280;54636;51.684;5.142;2024-01-30T10:35:34;102681.09;;;11.63;100.00
67840;BME280;54636;51.684;5.142;2024-01-30T10:38:00;102682.81;;;11.70;100.00
67840;BME280;54636;51.684;5.142;2024-01-30T10:40:28;102685.81;;;11.72;100.00
67840;BME280;54636;51.684;5.142;2024-01-30T10:42:55;102684.63;;;11.73;100.00
67840;BME280;54636;51.684;5.142;2024-01-30T10:45:22;102678.06;;;11.61;100.00
67840;BME280;54636;51.684;5.142;2024-01-30T10:47:53;102695.47;;;11.64;100.00
67840;BME280;54636;51.684;5.142;2024-01-30T10:50:20;102700.34;;;11.69;100.00
67840;BME280;54636;51.684;5.142;2024-01-30T10:52:47;102693.53;;;11.73;100.00
67840;BME280;54636;51.684;5.142;2024-01-30T10:55:13;102694.22;;;11.77;100.00
67840;BME280;54636;51.684;5.142;2024-01-30T10:57:40;102686.69;;;11.81;100.00
67840;BME280;54636;51.684;5.142;2024-01-30T11:00:10;102685.47;;;11.82;100.00
67840;BME280;54636;51.684;5.142;2024-01-30T11:02:41;102692.00;;;11.85;100.00
67840;BME280;54636;51.684;5.142;2024-01-30T11:05:07;102688.25;;;11.92;100.00
67840;BME280;54636;51.684;5.142;2024-01-30T11:07:33;102687.25;;;11.98;100.00
67840;BME280;54636;51.684;5.142;2024-01-30T11:12:38;102688.75;;;11.99;100.00
67840;BME280;54636;51.684;5.142;2024-01-30T11:15:11;102694.03;;;11.94;100.00
67840;BME280;54636;51.684;5.142;2024-01-30T11:17:50;102686.03;;;11.99;100.00
67840;BME280;54636;51.684;5.142;2024-01-30T11:20:27;102692.44;;;12.05;100.00
67840;BME280;54636;51.684;5.142;2024-01-30T11:22:56;102688.81;;;12.08;100.00
67840;BME280;54636;51.684;5.142;2024-01-30T11:25:22;102685.41;;;12.17;100.00
67840;BME280;54636;51.684;5.142;2024-01-30T11:27:50;102695.28;;;12.02;100.00
67840;BME280;54636;51.684;5.142;2024-01-30T11:30:29;102698.50;;;12.09;100.00
67840;BME280;54636;51.684;5.142;2024-01-30T11:35:31;102697.56;;;12.25;100.00
67840;BME280;54636;51.684;5.142;2024-01-30T11:37:58;102713.91;;;12.25;100.00
67840;BME280;54636;51.684;5.142;2024-01-30T11:40:27;102712.63;;;12.17;100.00
67840;BME280;54636;51.684;5.142;2024-01-30T11:42:53;102714.84;;;12.09;100.00
67840;BME280;54636;51.684;5.142;2024-01-30T11:45:19;102716.19;;;12.05;100.00
67840;BME280;54636;51.684;5.142;2024-01-30T11:47:45;102709.97;;;12.04;100.00
67840;BME280;54636;51.684;5.142;2024-01-30T11:50:10;102715.81;;;11.94;99.61
67840;BME280;54636;51.684;5.142;2024-01-30T11:52:36;102709.91;;;11.95;98.26
67840;BME280;54636;51.684;5.142;2024-01-30T11:55:02;102708.66;;;11.87;95.87
67840;BME280;54636;51.684;5.142;2024-01-30T11:57:28;102708.59;;;11.78;97.15
67840;BME280;54636;51.684;5.142;2024-01-30T11:59:53;102693.84;;;11.75;97.84
67840;BME280;54636;51.684;5.142;2024-01-30T12:02:19;102714.09;;;11.87;96.99
67840;BME280;54636;51.684;5.142;2024-01-30T12:04:44;102718.97;;;11.92;97.87
67840;BME280;54636;51.684;5.142;2024-01-30T12:07:10;102731.63;;;11.86;97.73
67840;BME280;54636;51.684;5.142;2024-01-30T12:09:36;102732.41;;;11.74;100.00
67840;BME280;54636;51.684;5.142;2024-01-30T12:12:01;102730.44;;;11.74;100.00
67840;BME280;54636;51.684;5.142;2024-01-30T12:14:27;102724.47;;;11.79;100.00
67840;BME280;54636;51.684;5.142;2024-01-30T12:16:52;102729.69;;;11.86;100.00
67840;BME280;54636;51.684;5.142;2024-01-30T12:19:25;102735.25;;;11.83;100.00
67840;BME280;54636;51.684;5.142;2024-01-30T12:21:54;102727.84;;;11.83;100.00
67840;BME280;54636;51.684;5.142;2024-01-30T12:24:21;102743.28;;;11.86;99.84
67840;BME280;54636;51.684;5.142;2024-01-30T12:26:47;102735.25;;;11.83;97.32
67840;BME280;54636;51.684;5.142;2024-01-30T12:29:14;102743.44;;;11.70;95.10
67840;BME280;54636;51.684;5.142;2024-01-30T12:31:42;102751.69;;;11.79;96.33
67840;BME280;54636;51.684;5.142;2024-01-30T12:34:07;102752.34;;;11.71;94.00
67840;BME280;54636;51.684;5.142;2024-01-30T12:36:34;102754.63;;;11.72;93.86
67840;BME280;54636;51.684;5.142;2024-01-30T12:39:00;102765.53;;;11.72;94.08
67840;BME280;54636;51.684;5.142;2024-01-30T12:41:26;102756.47;;;11.75;91.31
67840;BME280;54636;51.684;5.142;2024-01-30T12:43:55;102766.88;;;11.68;91.39
67840;BME280;54636;51.684;5.142;2024-01-30T12:46:26;102779.53;;;11.49;91.47